createdAt,value
2022-08-31T00:01:07.358Z,17.40
2022-08-31T00:03:54.300Z,17.30
2022-08-31T00:06:29.717Z,17.30
2022-08-31T00:09:04.233Z,17.40
2022-08-31T00:11:41.728Z,17.40
2022-08-31T00:14:16.742Z,17.40
2022-08-31T00:16:51.092Z,17.40
2022-08-31T00:19:25.435Z,17.50
2022-08-31T00:22:00.625Z,17.40
2022-08-31T00:24:35.030Z,17.40
2022-08-31T00:27:15.649Z,17.50
2022-08-31T00:29:50.174Z,17.40
2022-08-31T00:32:28.842Z,17.30
2022-08-31T00:35:03.317Z,17.40
2022-08-31T00:37:38.602Z,17.50
2022-08-31T00:40:14.499Z,17.40
2022-08-31T00:42:55.062Z,17.40
2022-08-31T00:45:29.063Z,17.40
2022-08-31T00:48:03.633Z,17.30
2022-08-31T00:50:38.175Z,17.40
2022-08-31T00:53:13.600Z,17.40
2022-08-31T00:55:46.269Z,17.50
2022-08-31T00:58:24.745Z,17.30
2022-08-31T01:00:59.610Z,17.30
2022-08-31T01:03:33.994Z,17.30
2022-08-31T01:06:07.966Z,17.40
2022-08-31T01:08:42.330Z,17.30
2022-08-31T01:11:17.972Z,17.30
2022-08-31T01:13:50.224Z,17.30
2022-08-31T01:16:29.446Z,17.30
2022-08-31T01:19:06.696Z,17.30
2022-08-31T01:21:43.534Z,17.20
2022-08-31T01:24:21.115Z,17.20
2022-08-31T01:26:55.515Z,17.30
2022-08-31T01:29:31.608Z,17.20
2022-08-31T01:32:06.673Z,17.30
2022-08-31T01:34:40.276Z,17.20
2022-08-31T01:37:15.546Z,17.20
2022-08-31T01:39:52.868Z,17.20
2022-08-31T01:42:33.506Z,17.10
2022-08-31T01:45:10.157Z,17.20
2022-08-31T01:47:44.300Z,17.20
2022-08-31T01:50:20.601Z,17.10
2022-08-31T01:52:56.619Z,17.10
2022-08-31T01:55:33.965Z,17.20
2022-08-31T01:58:09.007Z,17.10
2022-08-31T02:00:58.153Z,17.00
2022-08-31T02:03:35.417Z,17.00
2022-08-31T02:06:12.227Z,16.90
2022-08-31T02:08:47.768Z,16.90
2022-08-31T02:11:26.464Z,16.90
2022-08-31T02:14:01.645Z,16.90
2022-08-31T02:16:37.212Z,16.90
2022-08-31T02:19:15.309Z,16.80
2022-08-31T02:21:49.282Z,16.80
2022-08-31T02:24:25.406Z,16.80
2022-08-31T02:27:06.851Z,16.70
2022-08-31T02:29:42.320Z,16.70
2022-08-31T02:32:20.216Z,16.70
2022-08-31T02:34:55.787Z,16.70
2022-08-31T02:37:33.799Z,16.70
2022-08-31T02:40:12.376Z,16.70
2022-08-31T02:42:53.580Z,16.60
2022-08-31T02:45:34.264Z,16.60
2022-08-31T02:48:15.249Z,16.60
2022-08-31T02:50:51.875Z,16.60
2022-08-31T02:53:27.199Z,16.60
2022-08-31T02:56:02.236Z,16.60
2022-08-31T02:58:37.844Z,16.50
2022-08-31T03:01:14.457Z,16.50
2022-08-31T03:03:50.282Z,16.50
2022-08-31T03:06:30.019Z,16.50
2022-08-31T03:09:05.236Z,16.50
2022-08-31T03:11:40.683Z,16.40
2022-08-31T03:14:16.107Z,16.40
2022-08-31T03:16:52.809Z,16.40
2022-08-31T03:19:28.386Z,16.40
2022-08-31T03:22:03.851Z,16.30
2022-08-31T03:24:39.878Z,16.30
2022-08-31T03:27:14.255Z,16.30
2022-08-31T03:29:48.042Z,16.20
2022-08-31T03:32:28.180Z,16.20
2022-08-31T03:35:03.707Z,16.20
2022-08-31T03:37:39.151Z,16.20
2022-08-31T03:40:14.473Z,16.20
2022-08-31T03:42:50.276Z,16.20
2022-08-31T03:45:25.362Z,16.20
2022-08-31T03:48:11.408Z,16.20
2022-08-31T03:50:47.943Z,16.20
2022-08-31T03:53:29.827Z,16.20
2022-08-31T03:56:09.594Z,16.20
2022-08-31T03:58:50.529Z,16.10
2022-08-31T04:01:51.520Z,16.10
2022-08-31T04:04:47.380Z,16.10
2022-08-31T04:07:45.624Z,16.10
2022-08-31T04:10:43.021Z,16.10
2022-08-31T04:13:43.172Z,16.10
2022-08-31T04:16:38.837Z,16.10
2022-08-31T04:19:38.993Z,16.10
2022-08-31T04:22:36.312Z,16.10
2022-08-31T04:25:29.957Z,16.20
2022-08-31T04:28:04.799Z,16.20
2022-08-31T04:30:41.413Z,16.20
2022-08-31T04:33:18.873Z,16.20
2022-08-31T04:35:53.511Z,16.20
2022-08-31T04:38:31.497Z,16.30
2022-08-31T04:41:10.304Z,16.20
2022-08-31T04:43:48.099Z,16.30
2022-08-31T04:46:22.545Z,16.30
2022-08-31T04:48:58.207Z,16.30
2022-08-31T04:51:35.718Z,16.30
2022-08-31T04:54:14.253Z,16.30
2022-08-31T04:56:49.227Z,16.40
2022-08-31T04:59:34.439Z,16.30
2022-08-31T05:02:22.949Z,16.40
2022-08-31T05:05:06.402Z,16.50
2022-08-31T05:07:40.586Z,16.50
2022-08-31T05:10:18.091Z,16.50
2022-08-31T05:12:52.642Z,16.50
2022-08-31T05:15:31.687Z,16.60
2022-08-31T05:18:07.331Z,16.60
2022-08-31T05:20:45.114Z,16.60
2022-08-31T05:23:19.855Z,16.60
2022-08-31T05:25:57.946Z,16.60
2022-08-31T05:28:35.588Z,16.70
2022-08-31T05:31:11.246Z,16.70
2022-08-31T05:33:51.900Z,16.80
2022-08-31T05:36:39.926Z,16.80
2022-08-31T05:39:16.201Z,16.90
2022-08-31T05:41:53.525Z,16.90
2022-08-31T05:44:29.394Z,17.00
2022-08-31T05:47:05.192Z,17.00
2022-08-31T05:49:40.959Z,17.00
2022-08-31T05:52:16.745Z,17.10
2022-08-31T05:54:51.969Z,17.10
2022-08-31T05:57:29.164Z,17.20
2022-08-31T06:00:04.050Z,17.20
2022-08-31T06:02:50.185Z,17.30
2022-08-31T06:05:28.542Z,17.30
2022-08-31T06:08:06.474Z,17.40
2022-08-31T06:10:41.011Z,17.50
2022-08-31T06:13:19.427Z,17.50
2022-08-31T06:15:53.809Z,17.60
2022-08-31T06:18:28.662Z,17.60
2022-08-31T06:21:09.534Z,17.60
2022-08-31T06:23:44.884Z,17.60
2022-08-31T06:26:20.677Z,17.60
2022-08-31T06:29:03.811Z,17.60
2022-08-31T06:31:47.329Z,17.70
2022-08-31T06:34:26.377Z,17.60
2022-08-31T06:37:20.743Z,17.70
2022-08-31T06:40:09.574Z,17.70
2022-08-31T06:42:59.153Z,17.70
2022-08-31T06:45:45.621Z,17.70
2022-08-31T06:48:40.901Z,17.70
2022-08-31T06:51:15.343Z,17.70
2022-08-31T06:53:50.198Z,17.70
2022-08-31T06:56:44.802Z,17.80
2022-08-31T06:59:55.797Z,17.80
2022-08-31T07:02:53.164Z,17.80
2022-08-31T07:05:32.871Z,17.90
2022-08-31T07:08:08.046Z,17.90
2022-08-31T07:10:43.106Z,17.90
2022-08-31T07:13:30.661Z,17.90
2022-08-31T07:16:07.412Z,17.90
2022-08-31T07:18:45.317Z,18.00
2022-08-31T07:21:22.594Z,18.00
2022-08-31T07:23:59.360Z,18.00
2022-08-31T07:26:36.744Z,18.10
2022-08-31T07:29:15.355Z,18.10
2022-08-31T07:31:52.770Z,18.20
2022-08-31T07:34:34.274Z,18.30
2022-08-31T07:37:42.867Z,18.30
2022-08-31T07:40:30.555Z,18.50
2022-08-31T07:43:06.735Z,18.60
2022-08-31T07:45:45.285Z,18.70
2022-08-31T07:48:28.094Z,18.80
2022-08-31T07:51:23.787Z,18.90
2022-08-31T07:54:18.234Z,19.00
2022-08-31T07:57:08.893Z,19.10
2022-08-31T07:59:45.202Z,19.10
2022-08-31T08:02:21.628Z,19.20
2022-08-31T08:05:01.557Z,19.20
2022-08-31T08:08:13.630Z,19.20
2022-08-31T08:11:07.096Z,19.20
2022-08-31T08:14:08.980Z,19.20
2022-08-31T08:16:56.496Z,19.20
2022-08-31T08:19:43.956Z,19.20
2022-08-31T08:22:35.678Z,19.20
2022-08-31T08:25:40.754Z,19.10
2022-08-31T08:28:45.422Z,19.10
2022-08-31T08:31:24.715Z,19.00
2022-08-31T08:34:03.292Z,19.00
2022-08-31T08:36:41.208Z,19.00
2022-08-31T08:39:17.133Z,19.00
2022-08-31T08:42:02.685Z,19.00
2022-08-31T08:44:40.479Z,19.00
2022-08-31T08:47:20.972Z,18.90
2022-08-31T08:50:06.894Z,19.00
2022-08-31T08:52:47.177Z,19.00
2022-08-31T08:55:24.025Z,18.90
2022-08-31T08:58:03.651Z,18.90
2022-08-31T09:00:46.973Z,19.00
2022-08-31T09:03:30.749Z,19.10
2022-08-31T09:06:32.245Z,19.10
2022-08-31T09:09:37.417Z,19.20
2022-08-31T09:12:26.276Z,19.30
2022-08-31T09:15:39.446Z,19.30
2022-08-31T09:18:33.856Z,19.40
2022-08-31T09:21:25.585Z,19.50
2022-08-31T09:24:03.411Z,19.70
2022-08-31T09:27:17.552Z,19.80
2022-08-31T09:29:58.170Z,20.10
2022-08-31T09:32:33.109Z,20.30
2022-08-31T09:35:14.517Z,20.50
2022-08-31T09:37:53.140Z,20.60
2022-08-31T09:40:37.319Z,20.80
2022-08-31T09:43:13.757Z,20.90
2022-08-31T09:45:56.721Z,21.20
2022-08-31T09:48:49.099Z,21.30
2022-08-31T09:51:18.629Z,21.50
2022-08-31T09:54:08.581Z,21.80
2022-08-31T09:56:55.839Z,22.00
2022-08-31T09:59:38.594Z,22.30
2022-08-31T10:02:18.748Z,22.40
2022-08-31T10:04:55.307Z,22.50
2022-08-31T10:07:37.942Z,22.60
2022-08-31T10:10:28.049Z,22.70
2022-08-31T10:13:06.806Z,22.60
2022-08-31T10:15:45.296Z,22.50
2022-08-31T10:18:22.656Z,22.40
2022-08-31T10:20:59.031Z,22.30
2022-08-31T10:23:37.213Z,22.30
2022-08-31T10:26:18.592Z,22.20
2022-08-31T10:28:55.332Z,22.10
2022-08-31T10:31:32.222Z,22.00
2022-08-31T10:34:22.048Z,22.00
2022-08-31T10:36:55.494Z,22.00
2022-08-31T10:39:32.089Z,22.00
2022-08-31T10:42:12.733Z,21.90
2022-08-31T10:44:57.060Z,21.90
2022-08-31T10:47:34.518Z,21.90
2022-08-31T10:50:10.752Z,21.90
2022-08-31T10:52:52.048Z,21.90
2022-08-31T10:55:33.401Z,22.00
2022-08-31T10:58:16.429Z,22.10
2022-08-31T11:00:54.307Z,22.20
2022-08-31T11:03:41.688Z,22.20
2022-08-31T11:06:18.456Z,22.30
2022-08-31T11:08:57.802Z,22.20
2022-08-31T11:11:43.836Z,22.20
2022-08-31T11:14:36.920Z,22.20
2022-08-31T11:17:22.385Z,22.10
2022-08-31T11:20:10.836Z,22.00
2022-08-31T11:22:56.766Z,22.00
2022-08-31T11:26:08.992Z,22.00
2022-08-31T11:28:48.486Z,22.00
2022-08-31T11:31:32.279Z,22.00
2022-08-31T11:34:17.256Z,22.00
2022-08-31T11:36:55.014Z,22.00
2022-08-31T11:39:53.522Z,22.00
2022-08-31T11:43:01.525Z,22.00
2022-08-31T11:45:37.999Z,22.10
2022-08-31T11:48:51.984Z,22.20
2022-08-31T11:51:25.737Z,22.30
2022-08-31T11:54:03.159Z,22.30
2022-08-31T11:56:41.154Z,22.30
2022-08-31T11:59:30.331Z,22.40
2022-08-31T12:02:37.052Z,22.40
2022-08-31T12:05:14.052Z,22.50
2022-08-31T12:07:50.360Z,22.40
2022-08-31T12:10:36.003Z,22.50
2022-08-31T12:13:36.885Z,22.60
2022-08-31T12:16:25.399Z,22.70
2022-08-31T12:19:09.900Z,22.80
2022-08-31T12:21:59.613Z,22.80
2022-08-31T12:24:38.037Z,22.80
2022-08-31T12:27:34.452Z,22.80
2022-08-31T12:30:22.167Z,22.90
2022-08-31T12:33:01.511Z,22.80
2022-08-31T12:35:36.874Z,22.90
2022-08-31T12:38:12.511Z,22.90
2022-08-31T12:40:48.317Z,22.80
2022-08-31T12:43:27.121Z,22.80
2022-08-31T12:46:28.704Z,22.80
2022-08-31T12:49:09.874Z,22.90
2022-08-31T12:51:47.462Z,22.90
2022-08-31T12:55:09.972Z,23.00
2022-08-31T12:57:57.051Z,23.10
2022-08-31T13:00:35.707Z,23.10
2022-08-31T13:03:20.985Z,23.10
2022-08-31T13:06:08.499Z,23.20
2022-08-31T13:08:45.229Z,23.30
2022-08-31T13:11:35.333Z,23.40
2022-08-31T13:14:18.857Z,23.40
2022-08-31T13:16:57.052Z,23.40
2022-08-31T13:19:33.286Z,23.30
2022-08-31T13:22:08.918Z,23.20
2022-08-31T13:24:53.658Z,23.20
2022-08-31T13:27:27.956Z,23.10
2022-08-31T13:30:18.725Z,23.10
2022-08-31T13:32:57.610Z,23.10
2022-08-31T13:35:35.933Z,23.10
2022-08-31T13:38:12.514Z,23.10
2022-08-31T13:40:54.288Z,23.20
2022-08-31T13:43:29.416Z,23.20
2022-08-31T13:46:05.152Z,23.10
2022-08-31T13:48:41.095Z,23.10
2022-08-31T13:51:21.373Z,23.10
2022-08-31T13:54:09.327Z,23.20
2022-08-31T13:56:59.986Z,23.20
2022-08-31T13:59:38.984Z,23.10
2022-08-31T14:02:36.794Z,23.10
2022-08-31T14:05:15.171Z,23.10
2022-08-31T14:08:02.534Z,23.10
2022-08-31T14:10:38.939Z,23.00
2022-08-31T14:13:21.160Z,23.00
2022-08-31T14:15:56.727Z,22.90
2022-08-31T14:18:33.559Z,22.80
2022-08-31T14:21:24.000Z,22.80
2022-08-31T14:24:02.996Z,22.80
2022-08-31T14:26:37.231Z,22.70
2022-08-31T14:29:12.682Z,22.80
2022-08-31T14:31:52.506Z,22.80
2022-08-31T14:34:30.573Z,22.70
2022-08-31T14:37:10.768Z,22.70
2022-08-31T14:39:46.824Z,22.70
2022-08-31T14:42:24.923Z,22.60
2022-08-31T14:45:03.335Z,22.60
2022-08-31T14:47:42.867Z,22.50
2022-08-31T14:50:18.942Z,22.60
2022-08-31T14:52:57.724Z,22.50
2022-08-31T14:55:33.203Z,22.40
2022-08-31T14:58:09.205Z,22.40
2022-08-31T15:00:51.049Z,22.40
2022-08-31T15:03:26.955Z,22.30
2022-08-31T15:06:03.474Z,22.30
2022-08-31T15:08:41.147Z,22.20
2022-08-31T15:11:15.625Z,22.20
2022-08-31T15:13:51.654Z,22.10
2022-08-31T15:16:27.318Z,22.10
2022-08-31T15:19:02.526Z,22.10
2022-08-31T15:21:44.834Z,22.10
2022-08-31T15:24:24.712Z,22.20
2022-08-31T15:27:01.769Z,22.10
2022-08-31T15:29:36.435Z,22.10
2022-08-31T15:32:14.588Z,22.00
2022-08-31T15:34:58.230Z,22.00
2022-08-31T15:37:32.949Z,22.00
2022-08-31T15:40:11.496Z,21.90
2022-08-31T15:42:48.296Z,21.90
2022-08-31T15:45:23.651Z,21.80
2022-08-31T15:48:10.763Z,21.80
2022-08-31T15:50:55.935Z,21.70
2022-08-31T15:53:31.017Z,21.70
2022-08-31T15:56:09.622Z,21.60
2022-08-31T15:58:44.173Z,21.60
2022-08-31T16:01:19.148Z,21.60
2022-08-31T16:03:55.189Z,21.60
2022-08-31T16:06:32.847Z,21.50
2022-08-31T16:09:09.975Z,21.60
2022-08-31T16:11:47.254Z,21.50
2022-08-31T16:14:21.611Z,21.50
2022-08-31T16:16:57.906Z,21.50
2022-08-31T16:19:36.000Z,21.50
2022-08-31T16:22:10.690Z,21.50
2022-08-31T16:24:47.089Z,21.40
2022-08-31T16:27:24.249Z,21.40
2022-08-31T16:29:58.591Z,21.40
2022-08-31T16:32:33.167Z,21.30
2022-08-31T16:35:07.341Z,21.30
2022-08-31T16:37:41.890Z,21.30
2022-08-31T16:40:16.342Z,21.20
2022-08-31T16:42:53.445Z,21.20
2022-08-31T16:45:28.074Z,21.20
2022-08-31T16:48:14.305Z,21.20
2022-08-31T16:50:49.810Z,21.20
2022-08-31T16:53:24.849Z,21.10
2022-08-31T16:56:00.404Z,21.10
2022-08-31T16:58:51.636Z,21.00
2022-08-31T17:01:28.534Z,20.90
2022-08-31T17:04:04.899Z,21.00
2022-08-31T17:06:40.023Z,20.90
2022-08-31T17:09:16.535Z,20.90
2022-08-31T17:11:57.307Z,20.80
2022-08-31T17:14:36.208Z,20.80
2022-08-31T17:17:10.056Z,20.70
2022-08-31T17:19:44.689Z,20.70
2022-08-31T17:22:25.752Z,20.60
2022-08-31T17:25:04.942Z,20.60
2022-08-31T17:27:39.300Z,20.50
2022-08-31T17:30:17.519Z,20.50
2022-08-31T17:32:53.086Z,20.40
2022-08-31T17:35:28.147Z,20.40
2022-08-31T17:38:03.452Z,20.30
2022-08-31T17:40:37.534Z,20.20
2022-08-31T17:43:15.423Z,20.20
2022-08-31T17:45:52.351Z,20.10
2022-08-31T17:48:30.018Z,20.00
2022-08-31T17:51:09.282Z,20.00
2022-08-31T17:53:43.737Z,19.90
2022-08-31T17:56:20.956Z,19.90
2022-08-31T17:58:58.684Z,19.90
2022-08-31T18:01:36.227Z,19.90
2022-08-31T18:04:10.530Z,19.90
2022-08-31T18:06:46.818Z,19.80
2022-08-31T18:09:22.343Z,19.80
2022-08-31T18:11:56.533Z,19.70
2022-08-31T18:14:32.862Z,19.60
2022-08-31T18:17:12.853Z,19.50
2022-08-31T18:19:48.572Z,19.40
2022-08-31T18:22:23.157Z,19.20
2022-08-31T18:24:58.681Z,19.20
2022-08-31T18:27:33.955Z,19.10
2022-08-31T18:30:10.022Z,19.10
2022-08-31T18:32:49.943Z,19.00
2022-08-31T18:35:25.320Z,18.90
2022-08-31T18:37:59.135Z,18.80
2022-08-31T18:40:45.490Z,18.80
2022-08-31T18:43:33.053Z,18.70
2022-08-31T18:46:07.820Z,18.60
2022-08-31T18:49:01.164Z,18.60
2022-08-31T18:51:46.708Z,18.50
2022-08-31T18:54:21.342Z,18.50
2022-08-31T18:56:55.050Z,18.40
2022-08-31T18:59:29.177Z,18.40
2022-08-31T19:02:03.403Z,18.40
2022-08-31T19:04:41.663Z,18.30
2022-08-31T19:07:17.057Z,18.20
2022-08-31T19:09:52.704Z,18.10
2022-08-31T19:12:28.209Z,18.10
2022-08-31T19:15:03.747Z,18.00
2022-08-31T19:17:39.848Z,17.90
2022-08-31T19:20:16.890Z,17.80
2022-08-31T19:22:51.302Z,17.70
2022-08-31T19:25:25.153Z,17.60
2022-08-31T19:28:01.738Z,17.60
2022-08-31T19:30:36.153Z,17.50
2022-08-31T19:33:12.525Z,17.50
2022-08-31T19:35:49.717Z,17.40
2022-08-31T19:38:27.636Z,17.40
2022-08-31T19:41:00.995Z,17.30
2022-08-31T19:43:46.930Z,17.30
2022-08-31T19:46:28.223Z,17.20
2022-08-31T19:49:02.734Z,17.20
2022-08-31T19:51:40.311Z,17.10
2022-08-31T19:54:14.767Z,17.10
2022-08-31T19:56:49.278Z,17.00
2022-08-31T19:59:24.410Z,16.90
2022-08-31T20:01:59.793Z,16.80
2022-08-31T20:04:34.831Z,16.70
2022-08-31T20:07:14.622Z,16.70
2022-08-31T20:09:49.589Z,16.70
2022-08-31T20:12:24.611Z,16.60
2022-08-31T20:14:59.244Z,16.60
2022-08-31T20:17:33.745Z,16.60
2022-08-31T20:20:12.212Z,16.50
2022-08-31T20:22:49.534Z,16.40
2022-08-31T20:25:27.062Z,16.40
2022-08-31T20:28:01.648Z,16.40
2022-08-31T20:30:39.052Z,16.30
2022-08-31T20:33:14.241Z,16.30
2022-08-31T20:35:52.220Z,16.20
2022-08-31T20:38:29.334Z,16.20
2022-08-31T20:41:06.135Z,16.20
2022-08-31T20:43:40.841Z,16.20
2022-08-31T20:46:36.367Z,16.10
2022-08-31T20:49:23.679Z,16.00
2022-08-31T20:51:58.960Z,15.90
2022-08-31T20:54:35.446Z,15.90
2022-08-31T20:57:12.398Z,15.90
2022-08-31T20:59:46.815Z,15.80
2022-08-31T21:02:23.149Z,15.80
2022-08-31T21:05:10.399Z,15.70
2022-08-31T21:07:52.492Z,15.70
2022-08-31T21:10:36.763Z,15.80
2022-08-31T21:13:15.753Z,15.80
2022-08-31T21:15:51.034Z,15.70
2022-08-31T21:18:25.960Z,15.70
2022-08-31T21:21:01.269Z,15.60
2022-08-31T21:23:35.281Z,15.60
2022-08-31T21:26:13.751Z,15.60
2022-08-31T21:28:51.267Z,15.50
2022-08-31T21:31:28.743Z,15.50
2022-08-31T21:34:04.511Z,15.40
2022-08-31T21:36:38.967Z,15.40
2022-08-31T21:39:15.100Z,15.40
2022-08-31T21:41:49.527Z,15.40
2022-08-31T21:44:25.803Z,15.40
2022-08-31T21:47:00.422Z,15.40
2022-08-31T21:49:34.465Z,15.30
2022-08-31T21:52:08.530Z,15.30
2022-08-31T21:54:45.045Z,15.20
2022-08-31T21:57:19.123Z,15.30
2022-08-31T21:59:55.819Z,15.20
2022-08-31T22:02:30.226Z,15.30
2022-08-31T22:05:08.591Z,15.30
2022-08-31T22:07:43.215Z,15.20
2022-08-31T22:10:17.138Z,15.20
2022-08-31T22:12:51.159Z,15.20
2022-08-31T22:15:28.458Z,15.10
2022-08-31T22:18:35.290Z,15.10
2022-08-31T22:20:57.081Z,15.10
2022-08-31T22:23:31.056Z,15.10
2022-08-31T22:26:05.178Z,15.10
2022-08-31T22:28:40.203Z,15.10
2022-08-31T22:31:16.938Z,15.10
2022-08-31T22:33:51.538Z,15.10
2022-08-31T22:36:31.820Z,15.10
2022-08-31T22:39:06.776Z,15.10
2022-08-31T22:41:41.918Z,15.10
2022-08-31T22:44:17.560Z,15.10
2022-08-31T22:46:56.418Z,15.10
2022-08-31T22:49:30.171Z,15.00
2022-08-31T22:52:04.623Z,15.00
2022-08-31T22:54:39.135Z,15.10
2022-08-31T22:57:13.215Z,15.00
2022-08-31T22:59:47.616Z,15.00
2022-08-31T23:02:25.436Z,15.00
2022-08-31T23:05:01.781Z,15.00
2022-08-31T23:07:36.152Z,15.00
2022-08-31T23:10:11.290Z,14.90
2022-08-31T23:12:45.188Z,14.90
2022-08-31T23:15:19.171Z,14.80
2022-08-31T23:17:57.871Z,14.80
2022-08-31T23:20:32.333Z,14.80
2022-08-31T23:23:06.219Z,14.80
2022-08-31T23:25:40.097Z,14.70
2022-08-31T23:28:14.093Z,14.70
2022-08-31T23:30:50.312Z,14.70
2022-08-31T23:33:27.084Z,14.70
2022-08-31T23:36:01.215Z,14.70
2022-08-31T23:38:35.349Z,14.70
2022-08-31T23:41:09.869Z,14.70
2022-08-31T23:43:49.033Z,14.70
2022-08-31T23:46:24.046Z,14.70
2022-08-31T23:49:00.791Z,14.70
2022-08-31T23:51:35.750Z,14.60
2022-08-31T23:54:10.745Z,14.70
2022-08-31T23:56:43.789Z,14.60
2022-08-31T23:59:19.927Z,14.70
